Time;durP1;ratioP1;P1;durP2;ratioP2;P2;SDS_P1;SDS_P2;PMS_P1;PMS_P2;Temp;Humidity;BMP_temperature;BMP_pressure;BME280_temperature;BME280_humidity;BME280_pressure;Samples;Min_cycle;Max_cycle;Signal;HPM_P1;HPM_P2
2022/04/29 00:04:42;;;;;;;16.53;9.10;;;7.40;95.70;;;;;;10413540;28;20053;-84
2022/04/29 00:09:43;;;;;;;17.70;9.60;;;7.30;96.80;;;;;;10412478;28;20052;-83
2022/04/29 00:14:44;;;;;;;19.87;9.87;;;7.20;98.10;;;;;;10411562;28;20043;-84
2022/04/29 00:19:45;;;;;;;15.23;9.40;;;7.10;99.10;;;;;;10409007;28;20063;-83
2022/04/29 00:24:46;;;;;;;17.90;9.87;;;7.00;99.90;;;;;;10411722;28;20028;-89
2022/04/29 00:29:46;;;;;;;18.27;9.40;;;6.90;99.90;;;;;;10408746;28;20034;-84
2022/04/29 00:34:47;;;;;;;18.50;10.23;;;6.80;99.90;;;;;;10411073;28;20036;-84
2022/04/29 00:39:48;;;;;;;21.37;11.83;;;6.80;99.90;;;;;;10410922;28;20369;-84
2022/04/29 00:44:50;;;;;;;17.10;10.23;;;6.60;99.90;;;;;;10439150;22;20053;-84
2022/04/29 00:49:51;;;;;;;19.37;12.00;;;6.50;99.90;;;;;;10451567;28;20040;-88
2022/04/29 00:54:59;;;;;;;17.07;10.43;;;6.40;99.90;;;;;;10434313;28;20024;-86
2022/04/29 01:00:06;;;;;;;16.67;9.63;;;6.30;99.90;;;;;;10433762;28;20029;-83
2022/04/29 01:05:09;;;;;;;17.83;9.67;;;6.30;99.90;;;;;;10467993;22;20064;-91
2022/04/29 01:10:12;;;;;;;18.83;8.97;;;6.30;99.90;;;;;;10451215;28;20537;-84
2022/04/29 01:15:15;;;;;;;18.60;10.20;;;6.30;99.90;;;;;;10432555;28;20614;-84
2022/04/29 01:20:18;;;;;;;20.50;11.37;;;6.20;99.90;;;;;;10423012;28;20041;-84
2022/04/29 01:25:19;;;;;;;15.70;8.90;;;6.20;99.90;;;;;;10448922;28;20059;-89
2022/04/29 01:30:20;;;;;;;17.57;9.83;;;6.10;99.90;;;;;;10446296;28;20028;-87
2022/04/29 01:35:20;;;;;;;20.43;10.97;;;6.10;99.90;;;;;;10432317;28;20037;-84
2022/04/29 01:40:21;;;;;;;19.83;11.33;;;6.00;99.90;;;;;;10449951;28;20044;-88
2022/04/29 01:45:22;;;;;;;22.83;12.30;;;5.90;99.90;;;;;;10450279;28;20040;-84
2022/04/29 01:50:22;;;;;;;20.83;12.30;;;6.00;99.90;;;;;;10449880;28;20123;-85
2022/04/29 01:55:23;;;;;;;17.90;11.43;;;6.00;99.90;;;;;;10431874;28;20544;-84
2022/04/29 02:00:24;;;;;;;23.03;13.03;;;6.10;99.90;;;;;;10448744;28;20055;-84
2022/04/29 02:05:25;;;;;;;26.87;14.50;;;6.20;99.90;;;;;;10450267;28;20089;-84
2022/04/29 02:10:26;;;;;;;27.00;13.73;;;6.20;99.90;;;;;;10431402;28;20029;-88
2022/04/29 02:15:26;;;;;;;29.60;15.47;;;6.20;99.90;;;;;;10449064;28;20033;-88
2022/04/29 02:20:27;;;;;;;31.77;15.80;;;6.30;99.90;;;;;;10432554;28;20593;-87
2022/04/29 02:25:28;;;;;;;27.97;15.57;;;6.30;99.90;;;;;;10445648;28;20076;-84
2022/04/29 02:30:30;;;;;;;25.73;13.50;;;6.30;99.90;;;;;;10448259;28;20533;-84
2022/04/29 02:35:31;;;;;;;27.83;14.33;;;6.30;99.90;;;;;;10449188;28;20021;-87
2022/04/29 02:40:31;;;;;;;26.77;15.17;;;6.30;99.90;;;;;;10455004;28;20460;-84
2022/04/29 02:45:32;;;;;;;33.13;15.33;;;6.20;99.90;;;;;;10456169;28;20029;-87
2022/04/29 02:50:33;;;;;;;25.73;15.50;;;6.20;99.90;;;;;;10457683;28;20040;-84
2022/04/29 02:55:33;;;;;;;28.07;15.10;;;6.10;99.90;;;;;;10456048;28;20021;-84
2022/04/29 03:00:34;;;;;;;31.70;16.90;;;6.10;99.90;;;;;;10452521;28;20136;-85
2022/04/29 03:05:35;;;;;;;33.07;17.73;;;6.10;99.90;;;;;;10455155;28;20061;-85
2022/04/29 03:10:36;;;;;;;31.80;16.47;;;6.10;99.90;;;;;;10456016;28;20033;-83
2022/04/29 03:15:36;;;;;;;28.23;15.90;;;6.20;99.90;;;;;;10439474;28;20032;-87
2022/04/29 03:20:39;;;;;;;29.27;16.47;;;6.20;99.90;;;;;;10455974;28;20059;-87
2022/04/29 03:25:42;;;;;;;31.23;17.43;;;6.30;99.90;;;;;;10455318;28;20045;-85
2022/04/29 03:30:43;;;;;;;32.23;17.73;;;6.40;99.90;;;;;;10455091;28;20036;-85
2022/04/29 03:35:46;;;;;;;33.67;19.13;;;6.40;99.90;;;;;;10454950;28;20033;-85
2022/04/29 03:40:46;;;;;;;32.90;18.50;;;6.50;99.90;;;;;;10437325;28;20045;-90
2022/04/29 03:45:47;;;;;;;31.50;17.23;;;6.60;99.90;;;;;;10454624;28;20464;-83
2022/04/29 03:50:48;;;;;;;29.80;16.23;;;6.70;99.90;;;;;;10454468;28;20551;-84
2022/04/29 03:55:49;;;;;;;29.67;16.57;;;6.80;99.90;;;;;;10454474;28;20111;-89
2022/04/29 04:00:49;;;;;;;33.33;18.77;;;6.90;99.90;;;;;;10464881;22;20583;-85
2022/04/29 04:11:09;;;;;;;31.33;18.70;;;7.10;99.90;;;;;;10450253;28;20041;-84
2022/04/29 04:16:10;;;;;;;33.63;19.07;;;7.20;99.90;;;;;;10448556;28;20422;-84
2022/04/29 04:21:10;;;;;;;59.53;28.30;;;7.30;99.90;;;;;;10445950;28;20048;-87
2022/04/29 04:26:11;;;;;;;51.57;26.60;;;7.40;99.90;;;;;;10451495;28;20439;-84
2022/04/29 04:31:12;;;;;;;47.17;24.10;;;7.50;99.90;;;;;;10443846;28;20044;-84
2022/04/29 04:36:13;;;;;;;43.03;23.13;;;7.60;99.90;;;;;;10412512;28;20075;-86
2022/04/29 04:41:16;;;;;;;41.13;22.80;;;7.80;99.90;;;;;;10409412;28;20162;-85
2022/04/29 04:46:17;;;;;;;40.07;19.50;;;8.00;99.90;;;;;;10435440;28;20028;-85
2022/04/29 04:51:18;;;;;;;35.10;19.43;;;8.00;99.90;;;;;;10414735;28;20025;-84
2022/04/29 04:56:19;;;;;;;35.57;19.23;;;8.10;99.90;;;;;;10434248;28;20029;-85
2022/04/29 05:01:23;;;;;;;38.03;21.07;;;8.20;99.90;;;;;;10411196;28;20045;-86
2022/04/29 05:06:23;;;;;;;46.50;27.90;;;8.30;99.90;;;;;;10436209;28;20059;-86
2022/04/29 05:11:24;;;;;;;51.87;26.50;;;8.40;99.90;;;;;;10407264;28;20027;-86
2022/04/29 05:16:25;;;;;;;53.50;26.60;;;8.50;99.90;;;;;;10446145;28;20487;-86
2022/04/29 05:21:26;;;;;;;51.00;25.67;;;8.70;99.90;;;;;;10437446;28;20040;-84
2022/04/29 05:26:26;;;;;;;71.50;42.00;;;9.00;99.90;;;;;;10450371;28;20025;-84
2022/04/29 05:31:27;;;;;;;62.60;31.43;;;9.20;99.90;;;;;;10449116;28;20017;-84
2022/04/29 05:36:28;;;;;;;61.37;30.77;;;9.50;99.90;;;;;;10449909;28;20025;-84
2022/04/29 05:46:48;;;;;;;34.00;17.97;;;10.00;99.90;;;;;;10451062;28;20033;-84
2022/04/29 05:51:49;;;;;;;30.90;16.17;;;10.20;99.90;;;;;;10450159;28;20123;-87
2022/04/29 05:56:50;;;;;;;31.73;17.40;;;10.40;99.90;;;;;;10432602;28;20033;-85
2022/04/29 06:01:50;;;;;;;32.40;16.47;;;10.60;99.90;;;;;;10449993;28;20061;-84
2022/04/29 06:06:51;;;;;;;24.95;13.55;;;10.80;99.90;;;;;;10432050;28;20029;-83
2022/04/29 06:11:52;;;;;;;19.35;11.63;;;11.10;99.90;;;;;;10431522;28;20431;-84
2022/04/29 06:16:52;;;;;;;33.75;20.55;;;11.30;99.30;;;;;;10449446;28;20400;-83
2022/04/29 06:21:53;;;;;;;22.63;11.95;;;11.40;94.90;;;;;;10449456;28;20036;-84
2022/04/29 06:26:54;;;;;;;20.73;12.07;;;11.70;94.90;;;;;;10449977;28;20029;-86
2022/04/29 06:31:54;;;;;;;17.42;10.73;;;11.90;94.80;;;;;;10431206;28;20029;-85
2022/04/29 06:36:55;;;;;;;16.60;9.02;;;12.00;93.90;;;;;;10450281;28;20025;-84
2022/04/29 06:41:55;;;;;;;18.27;10.23;;;12.30;92.40;;;;;;10449154;28;20399;-85
2022/04/29 06:46:56;;;;;;;10.60;7.43;;;12.60;92.40;;;;;;10431296;28;20187;-86
2022/04/29 06:51:57;;;;;;;13.45;6.82;;;12.90;90.60;;;;;;10448948;28;20495;-84
2022/04/29 06:56:57;;;;;;;10.60;6.20;;;13.10;85.30;;;;;;10448647;28;20400;-84
2022/04/29 07:01:58;;;;;;;11.50;5.68;;;13.20;84.80;;;;;;10431323;28;20056;-82
2022/04/29 07:06:59;;;;;;;11.57;4.88;;;13.40;80.90;;;;;;10449042;28;20029;-84
2022/04/29 07:12:00;;;;;;;11.27;5.80;;;13.60;79.30;;;;;;10449517;28;20037;-85
2022/04/29 07:17:01;;;;;;;11.05;5.55;;;13.70;77.10;;;;;;10448255;28;20416;-84
2022/04/29 07:22:01;;;;;;;9.23;4.75;;;13.70;75.30;;;;;;10451157;28;20040;-84
2022/04/29 07:27:02;;;;;;;10.43;5.45;;;13.70;75.10;;;;;;10437105;28;20653;-83
2022/04/29 07:32:03;;;;;;;9.55;5.45;;;13.70;74.20;;;;;;10455496;28;20028;-83
2022/04/29 07:42:24;;;;;;;12.18;6.30;;;13.70;74.90;;;;;;10455772;28;20076;-83
2022/04/29 07:47:25;;;;;;;10.25;5.80;;;14.10;73.90;;;;;;10455677;28;20029;-83
2022/04/29 07:52:26;;;;;;;8.40;5.82;;;13.90;74.20;;;;;;10455163;28;20118;-85
2022/04/29 07:57:27;;;;;;;9.52;5.93;;;14.10;74.20;;;;;;10436923;28;20443;-83
2022/04/29 08:02:27;;;;;;;8.23;5.68;;;14.20;72.20;;;;;;10454799;28;20071;-85
2022/04/29 08:07:29;;;;;;;12.82;5.40;;;14.30;72.80;;;;;;10454434;28;20404;-83
2022/04/29 08:12:30;;;;;;;10.65;5.55;;;14.50;72.60;;;;;;10454658;28;20377;-83
2022/04/29 08:17:30;;;;;;;6.35;5.00;;;15.00;69.50;;;;;;10453767;28;20029;-83
2022/04/29 08:22:31;;;;;;;8.18;5.80;;;15.20;68.70;;;;;;10453897;28;20075;-84
2022/04/29 08:27:32;;;;;;;7.72;5.00;;;15.30;66.90;;;;;;10436088;28;20464;-85
2022/04/29 08:32:40;;;;;;;9.55;4.55;;;15.60;69.70;;;;;;10452143;28;20051;-83
2022/04/29 08:37:42;;;;;;;4.38;3.50;;;16.30;65.20;;;;;;10435251;28;20120;-83
2022/04/29 08:42:43;;;;;;;7.18;2.92;;;16.80;62.90;;;;;;10453325;28;20076;-84
2022/04/29 08:47:46;;;;;;;4.30;2.90;;;16.50;60.00;;;;;;10453124;28;20404;-84
2022/04/29 08:52:48;;;;;;;4.18;3.05;;;15.80;61.60;;;;;;10452914;28;20028;-84
2022/04/29 09:03:18;;;;;;;6.75;3.53;;;15.40;60.80;;;;;;10452936;28;20131;-83
2022/04/29 09:08:21;;;;;;;6.35;2.33;;;15.30;59.70;;;;;;10452199;28;20029;-85
2022/04/29 09:13:27;;;;;;;6.88;4.40;;;16.00;61.70;;;;;;10451811;28;20511;-83
2022/04/29 09:18:34;;;;;;;4.82;3.10;;;16.60;58.10;;;;;;10451289;28;20036;-85
2022/04/29 09:23:40;;;;;;;5.43;3.17;;;16.50;57.40;;;;;;10451446;28;20079;-85
2022/04/29 09:28:42;;;;;;;10.98;6.22;;;16.80;55.10;;;;;;10449796;28;20613;-86
2022/04/29 09:33:56;;;;;;;5.80;3.10;;;17.60;59.60;;;;;;10451246;28;20020;-86
2022/04/29 09:44:30;;;;;;;4.30;2.92;;;18.20;57.10;;;;;;10451056;28;20380;-83
2022/04/29 09:49:31;;;;;;;4.18;2.60;;;17.90;56.70;;;;;;10431653;28;20025;-83
2022/04/29 09:54:40;;;;;;;4.30;2.83;;;17.20;57.40;;;;;;10447548;28;20024;-89
2022/04/29 09:59:57;;;;;;;5.10;2.72;;;16.40;56.70;;;;;;10449003;28;20412;-83
2022/04/29 10:04:58;;;;;;;5.30;2.65;;;16.20;60.30;;;;;;10432688;28;20025;-82
2022/04/29 10:10:00;;;;;;;7.30;3.38;;;17.30;59.90;;;;;;10449507;28;20025;-87
2022/04/29 10:15:06;;;;;;;6.47;2.90;;;18.40;59.00;;;;;;10447588;28;20020;-83
2022/04/29 10:25:47;;;;;;;7.25;2.88;;;18.40;54.30;;;;;;10449623;28;20044;-84
2022/04/29 10:30:59;;;;;;;5.30;3.10;;;17.50;55.30;;;;;;10448384;28;20022;-83
2022/04/29 10:36:08;;;;;;;6.40;2.80;;;16.80;55.60;;;;;;10449108;28;20039;-83
2022/04/29 10:41:25;;;;;;;3.25;2.60;;;16.30;56.10;;;;;;10449506;28;20049;-84
2022/04/29 10:46:36;;;;;;;4.20;2.70;;;16.80;60.20;;;;;;10449233;28;20074;-85
2022/04/29 10:51:46;;;;;;;5.45;2.60;;;17.80;57.70;;;;;;10449793;28;20037;-85
2022/04/29 10:57:01;;;;;;;4.72;2.35;;;18.90;57.20;;;;;;10451616;28;20028;-84
2022/04/29 11:02:07;;;;;;;6.60;3.87;;;19.60;52.90;;;;;;10456664;28;20049;-82
2022/04/29 11:07:46;;;;;;;3.85;1.70;;;19.50;56.10;;;;;;10457209;28;20473;-86
2022/04/29 11:12:58;;;;;;;6.10;2.25;;;20.20;52.40;;;;;;10456615;28;20387;-82
2022/04/29 11:18:14;;;;;;;6.85;2.53;;;18.80;50.80;;;;;;10438978;28;20163;-83
2022/04/29 11:28:43;;;;;;;4.75;2.25;;;17.90;56.20;;;;;;10456696;28;19905;-84
2022/04/29 11:33:44;;;;;;;5.90;4.10;;;18.50;57.50;;;;;;10438001;28;20395;-82
2022/04/29 11:38:47;;;;;;;3.17;2.10;;;19.10;56.00;;;;;;10455588;28;20027;-84
2022/04/29 11:43:49;;;;;;;7.57;2.30;;;19.00;52.80;;;;;;10455191;28;20075;-82
2022/04/29 11:49:00;;;;;;;8.00;2.63;;;17.90;53.50;;;;;;10455364;28;20605;-85
2022/04/29 11:54:03;;;;;;;8.43;2.50;;;17.10;55.00;;;;;;10455635;28;20017;-83
2022/04/29 11:59:05;;;;;;;5.32;2.83;;;16.50;57.00;;;;;;10454668;28;20116;-87
2022/04/29 12:04:06;;;;;;;2.88;2.38;;;17.10;57.90;;;;;;10436472;28;20048;-84
2022/04/29 12:09:08;;;;;;;3.92;2.50;;;16.90;55.80;;;;;;10454335;28;20058;-83
2022/04/29 12:14:19;;;;;;;3.45;2.38;;;17.60;58.80;;;;;;10436369;28;20036;-85
2022/04/29 12:19:21;;;;;;;6.18;3.47;;;18.50;52.70;;;;;;10453958;28;20054;-83
2022/04/29 12:24:24;;;;;;;3.40;2.10;;;18.20;55.50;;;;;;10454015;28;20024;-84
2022/04/29 12:29:32;;;;;;;7.15;2.70;;;18.00;54.10;;;;;;10454054;28;20509;-83
2022/04/29 12:34:48;;;;;;;3.88;2.10;;;17.60;55.70;;;;;;10428975;28;20506;-83
2022/04/29 12:39:50;;;;;;;7.60;2.45;;;17.00;55.80;;;;;;10410782;28;20038;-84
2022/04/29 12:45:12;;;;;;;6.05;2.75;;;16.90;56.70;;;;;;10411603;28;20481;-84
2022/04/29 12:50:31;;;;;;;4.60;2.30;;;16.70;56.50;;;;;;10412221;28;20021;-84
2022/04/29 12:55:35;;;;;;;5.32;3.20;;;16.50;57.30;;;;;;10411441;28;20058;-83
2022/04/29 13:00:39;;;;;;;3.67;2.53;;;16.50;56.70;;;;;;10411553;28;20103;-85
2022/04/29 13:05:40;;;;;;;4.75;2.58;;;17.20;57.90;;;;;;10410723;28;20033;-83
2022/04/29 13:10:46;;;;;;;5.10;2.55;;;17.50;54.60;;;;;;10411135;28;20025;-83
2022/04/29 13:15:48;;;;;;;4.20;3.00;;;17.20;56.70;;;;;;10410440;28;20034;-83
2022/04/29 13:20:52;;;;;;;4.43;2.70;;;17.10;56.70;;;;;;10392414;28;20037;-83
2022/04/29 13:25:56;;;;;;;5.00;2.40;;;16.80;57.00;;;;;;10411043;28;20060;-84
2022/04/29 13:30:58;;;;;;;4.32;2.60;;;16.80;56.30;;;;;;10392718;28;20071;-83
2022/04/29 13:36:00;;;;;;;5.72;2.30;;;17.20;56.70;;;;;;10409786;28;20465;-85
2022/04/29 13:41:01;;;;;;;4.10;2.58;;;17.10;56.10;;;;;;10420251;28;20037;-85
2022/04/29 13:46:05;;;;;;;5.60;2.88;;;16.90;56.80;;;;;;10449541;28;20039;-82
2022/04/29 13:51:05;;;;;;;2.70;2.22;;;16.90;57.00;;;;;;10449245;28;20615;-85
2022/04/29 13:56:06;;;;;;;7.05;3.28;;;16.80;58.30;;;;;;10449954;28;20056;-83
2022/04/29 14:01:06;;;;;;;3.47;2.25;;;16.70;58.40;;;;;;10450101;28;20083;-82
2022/04/29 14:06:07;;;;;;;3.45;2.45;;;16.60;58.50;;;;;;10449694;28;20062;-83
2022/04/29 14:11:11;;;;;;;4.10;2.20;;;16.50;58.60;;;;;;10449499;28;20035;-83
2022/04/29 14:16:12;;;;;;;5.13;2.33;;;16.40;58.70;;;;;;10448781;28;20090;-83
2022/04/29 14:21:12;;;;;;;6.05;2.90;;;16.20;58.40;;;;;;10449535;28;20139;-84
2022/04/29 14:26:13;;;;;;;5.03;2.33;;;16.10;59.00;;;;;;10449735;28;20108;-82
2022/04/29 14:31:14;;;;;;;6.70;2.60;;;16.20;58.10;;;;;;10441006;28;20052;-85
2022/04/29 14:36:14;;;;;;;2.95;2.05;;;16.60;59.40;;;;;;10437423;28;20033;-83
2022/04/29 14:41:15;;;;;;;4.38;2.30;;;17.10;58.50;;;;;;10457476;28;20033;-82
2022/04/29 14:46:17;;;;;;;10.57;3.95;;;17.40;57.50;;;;;;10443329;28;20040;-82
2022/04/29 14:51:18;;;;;;;34.30;18.25;;;17.70;57.40;;;;;;10415935;28;20484;-81
2022/04/29 14:56:19;;;;;;;17.83;6.40;;;18.00;57.30;;;;;;10398114;28;20036;-84
2022/04/29 15:01:19;;;;;;;18.05;9.85;;;18.10;56.60;;;;;;10440856;28;20147;-83
2022/04/29 15:06:23;;;;;;;16.65;8.38;;;18.00;55.50;;;;;;10456700;28;20029;-82
2022/04/29 15:16:42;;;;;;;19.05;9.65;;;17.40;56.30;;;;;;10455902;28;20033;-82
2022/04/29 15:21:43;;;;;;;34.95;21.23;;;16.90;56.20;;;;;;10437282;28;20040;-84
2022/04/29 15:26:43;;;;;;;21.48;9.57;;;16.60;57.30;;;;;;10454653;28;20066;-85
2022/04/29 15:31:44;;;;;;;12.68;5.00;;;16.30;57.40;;;;;;10449663;28;20055;-83
2022/04/29 15:36:47;;;;;;;14.05;5.57;;;16.00;58.50;;;;;;10455749;28;20055;-83
2022/04/29 15:41:49;;;;;;;45.95;26.05;;;15.80;59.30;;;;;;10437071;28;20530;-83
2022/04/29 15:46:50;;;;;;;49.67;25.98;;;15.50;59.60;;;;;;10430232;28;20029;-84
2022/04/29 15:51:51;;;;;;;7.63;4.20;;;15.40;60.50;;;;;;10455468;28;20392;-85
2022/04/29 15:56:51;;;;;;;9.60;4.85;;;15.20;60.40;;;;;;10436343;28;20033;-84
2022/04/29 16:01:52;;;;;;;10.55;5.88;;;14.90;62.20;;;;;;10454596;28;20067;-83
2022/04/29 16:06:53;;;;;;;9.73;5.10;;;14.80;64.30;;;;;;10434944;28;20024;-83
2022/04/29 16:11:54;;;;;;;9.15;4.22;;;14.70;63.50;;;;;;10436138;28;20032;-85
2022/04/29 16:16:54;;;;;;;7.07;3.08;;;14.60;63.30;;;;;;10435505;28;20037;-82
2022/04/29 16:21:55;;;;;;;5.40;3.40;;;14.70;62.70;;;;;;10453654;28;20528;-83
2022/04/29 16:26:56;;;;;;;7.25;3.10;;;14.70;63.70;;;;;;10444959;28;20050;-83
2022/04/29 16:31:56;;;;;;;4.97;3.03;;;14.70;63.70;;;;;;10451059;28;20078;-83
2022/04/29 16:36:58;;;;;;;5.20;2.95;;;14.60;64.40;;;;;;10452055;28;20040;-83
2022/04/29 16:41:59;;;;;;;5.75;2.80;;;14.50;63.40;;;;;;10449096;28;20064;-83
2022/04/29 16:47:00;;;;;;;8.77;3.30;;;14.40;64.20;;;;;;10445851;28;20111;-83
2022/04/29 16:52:00;;;;;;;6.72;3.15;;;14.20;65.20;;;;;;10437784;28;20017;-85
2022/04/29 17:02:20;;;;;;;7.30;3.08;;;13.80;67.90;;;;;;10435091;28;20660;-87
2022/04/29 17:07:21;;;;;;;6.22;3.33;;;13.60;70.80;;;;;;10436882;28;20033;-83
2022/04/29 17:12:21;;;;;;;7.93;3.65;;;13.60;68.60;;;;;;10411000;28;20023;-84
2022/04/29 17:17:22;;;;;;;7.65;4.22;;;13.70;68.10;;;;;;10420189;28;20480;-84
2022/04/29 17:22:23;;;;;;;7.78;3.72;;;13.80;66.90;;;;;;10449501;28;20041;-84
2022/04/29 17:27:24;;;;;;;10.05;3.90;;;13.80;66.50;;;;;;10448116;28;20032;-83
2022/04/29 17:32:25;;;;;;;10.70;4.20;;;13.70;66.40;;;;;;10424324;28;20040;-85
2022/04/29 17:37:25;;;;;;;9.15;4.93;;;13.60;66.50;;;;;;10448857;28;20029;-84
2022/04/29 17:42:29;;;;;;;9.57;4.80;;;13.60;66.10;;;;;;10424241;28;20051;-86
2022/04/29 17:47:30;;;;;;;10.20;4.85;;;13.40;66.70;;;;;;10427170;28;20029;-84
2022/04/29 17:52:31;;;;;;;12.35;5.65;;;13.00;70.30;;;;;;10444016;28;20025;-85
2022/04/29 17:57:34;;;;;;;12.73;6.20;;;12.50;70.30;;;;;;10444234;28;20041;-84
2022/04/29 18:02:37;;;;;;;15.05;7.43;;;12.10;74.20;;;;;;10447766;28;20074;-83
2022/04/29 18:07:39;;;;;;;18.80;7.88;;;11.40;75.70;;;;;;10434136;28;20480;-83
2022/04/29 18:12:41;;;;;;;15.70;8.07;;;10.90;77.00;;;;;;10421376;28;20162;-83
2022/04/29 18:17:42;;;;;;;20.70;8.50;;;10.60;77.90;;;;;;10446169;28;20033;-83
2022/04/29 18:22:44;;;;;;;18.10;8.77;;;10.30;79.70;;;;;;10464895;23;20069;-83
2022/04/29 18:27:47;;;;;;;14.60;7.60;;;10.00;79.90;;;;;;10439905;28;20088;-83
2022/04/29 18:32:47;;;;;;;16.27;7.73;;;9.80;81.10;;;;;;10437519;28;20112;-82
2022/04/29 18:37:48;;;;;;;15.60;7.57;;;9.60;81.50;;;;;;10447441;28;20033;-84
2022/04/29 18:42:49;;;;;;;15.43;7.70;;;9.40;82.80;;;;;;10446776;28;20390;-85
2022/04/29 18:47:50;;;;;;;13.47;7.13;;;9.30;82.80;;;;;;10446028;28;20045;-86
2022/04/29 18:52:51;;;;;;;11.93;6.70;;;9.10;84.60;;;;;;10446091;28;20079;-85
2022/04/29 18:57:52;;;;;;;13.87;6.43;;;9.10;84.70;;;;;;10438169;28;20041;-83
2022/04/29 19:02:53;;;;;;;12.87;6.00;;;9.10;84.40;;;;;;10427206;28;20136;-84
2022/04/29 19:07:54;;;;;;;13.60;7.07;;;9.00;84.90;;;;;;10442203;28;20425;-83
2022/04/29 19:12:54;;;;;;;16.13;7.37;;;9.00;85.00;;;;;;10420123;28;20439;-85
2022/04/29 19:17:55;;;;;;;18.20;7.73;;;8.90;85.30;;;;;;10432267;28;20033;-81
2022/04/29 19:22:56;;;;;;;18.10;8.73;;;8.80;85.70;;;;;;10422396;28;20076;-83
2022/04/29 19:27:57;;;;;;;19.60;9.43;;;8.70;86.40;;;;;;10442207;28;20628;-83
2022/04/29 19:32:58;;;;;;;18.00;8.37;;;8.60;86.70;;;;;;10408915;28;20025;-86
2022/04/29 19:37:58;;;;;;;17.90;8.40;;;8.60;87.00;;;;;;10429928;28;20039;-82
2022/04/29 19:42:59;;;;;;;17.77;8.47;;;8.60;87.40;;;;;;10430342;28;20037;-82
2022/04/29 19:48:00;;;;;;;19.20;8.77;;;8.50;87.20;;;;;;10439721;28;20047;-82
2022/04/29 19:53:01;;;;;;;14.37;7.20;;;8.40;87.50;;;;;;10436504;28;20083;-83
2022/04/29 20:08:40;;;;;;;14.57;7.47;;;8.20;88.90;;;;;;10449274;28;20036;-86
2022/04/29 20:13:41;;;;;;;18.60;9.00;;;8.20;88.90;;;;;;10435185;28;20480;-84
2022/04/29 20:18:43;;;;;;;16.97;9.20;;;8.10;89.20;;;;;;10434033;28;20139;-83
2022/04/29 20:23:45;;;;;;;19.57;8.37;;;8.00;89.80;;;;;;10446360;28;20053;-83
2022/04/29 20:28:47;;;;;;;18.17;9.80;;;7.90;90.30;;;;;;10447720;28;20028;-84
2022/04/29 20:33:48;;;;;;;17.27;9.57;;;7.80;90.80;;;;;;10442910;28;20055;-84
2022/04/29 20:38:48;;;;;;;18.47;9.87;;;7.80;91.20;;;;;;10429508;28;20465;-86
2022/04/29 20:43:58;;;;;;;19.83;10.10;;;7.60;91.70;;;;;;10431971;28;20077;-85
2022/04/29 20:48:59;;;;;;;22.03;10.90;;;7.50;92.30;;;;;;10411356;28;20045;-83
2022/04/29 20:54:03;;;;;;;19.63;11.03;;;7.40;92.50;;;;;;10417887;28;20060;-84
2022/04/29 20:59:03;;;;;;;23.57;10.93;;;7.40;93.30;;;;;;10435569;28;20040;-84
2022/04/29 21:04:04;;;;;;;22.53;10.70;;;7.20;94.10;;;;;;10432352;28;20083;-84
2022/04/29 21:09:05;;;;;;;18.10;9.70;;;7.20;93.90;;;;;;10439641;28;20496;-85
2022/04/29 21:14:06;;;;;;;21.20;10.33;;;7.10;94.50;;;;;;10433310;28;20460;-84
2022/04/29 21:19:07;;;;;;;18.37;9.13;;;7.10;95.10;;;;;;10439191;28;20120;-84
2022/04/29 21:24:08;;;;;;;21.93;10.00;;;7.00;95.00;;;;;;10433500;28;20049;-84
2022/04/29 21:34:29;;;;;;;19.33;9.33;;;7.00;94.70;;;;;;10449940;28;20029;-85
2022/04/29 21:39:29;;;;;;;20.43;10.07;;;6.90;94.50;;;;;;10449539;28;20029;-85
2022/04/29 21:44:30;;;;;;;20.67;10.03;;;6.90;94.50;;;;;;10449732;28;20032;-85
2022/04/29 21:49:30;;;;;;;20.30;9.20;;;6.80;95.20;;;;;;10432408;28;20063;-84
2022/04/29 21:54:36;;;;;;;19.73;9.63;;;6.80;95.20;;;;;;10449382;28;20036;-87
2022/04/29 21:59:36;;;;;;;19.58;8.90;;;6.80;95.50;;;;;;10448788;28;20443;-84
2022/04/29 22:04:37;;;;;;;16.73;8.93;;;6.80;95.30;;;;;;10448810;28;20037;-84
2022/04/29 22:09:38;;;;;;;17.10;9.30;;;6.70;96.10;;;;;;10449524;28;20025;-87
2022/04/29 22:14:39;;;;;;;18.73;9.07;;;6.70;96.80;;;;;;10449522;28;20051;-87
2022/04/29 22:19:40;;;;;;;19.40;9.27;;;6.60;97.60;;;;;;10448125;28;20044;-84
2022/04/29 22:24:41;;;;;;;19.03;8.60;;;6.60;97.70;;;;;;10449531;28;20520;-85
2022/04/29 22:29:41;;;;;;;17.90;8.93;;;6.50;97.40;;;;;;10447284;28;20098;-84
2022/04/29 22:34:42;;;;;;;16.73;8.60;;;6.50;97.60;;;;;;10430414;28;20040;-86
2022/04/29 22:39:43;;;;;;;19.50;9.27;;;6.40;98.00;;;;;;10430982;28;20136;-85
2022/04/29 22:44:44;;;;;;;16.50;9.43;;;6.30;97.60;;;;;;10448023;28;20130;-83
2022/04/29 22:49:44;;;;;;;16.70;8.90;;;6.30;98.10;;;;;;10448113;28;20114;-84
2022/04/29 22:54:45;;;;;;;19.13;8.50;;;6.30;97.20;;;;;;10453945;28;20037;-85
2022/04/29 22:59:46;;;;;;;14.90;8.23;;;6.20;96.80;;;;;;10456390;28;20037;-86
2022/04/29 23:04:46;;;;;;;21.00;8.87;;;6.20;96.60;;;;;;10437990;28;20040;-85
2022/04/29 23:09:47;;;;;;;17.07;8.10;;;6.10;96.70;;;;;;10438171;28;20086;-84
2022/04/29 23:14:48;;;;;;;18.00;9.30;;;6.20;97.20;;;;;;10438010;28;20036;-85
2022/04/29 23:19:48;;;;;;;19.70;10.47;;;6.10;96.70;;;;;;10437040;28;20041;-86
2022/04/29 23:24:49;;;;;;;21.33;10.50;;;6.00;97.40;;;;;;10455717;28;20108;-85
2022/04/29 23:29:50;;;;;;;24.50;12.10;;;6.00;98.00;;;;;;10454915;28;20025;-85
2022/04/29 23:34:51;;;;;;;29.20;12.63;;;6.00;98.30;;;;;;10455572;28;20048;-84
2022/04/29 23:39:51;;;;;;;23.73;11.63;;;5.80;99.30;;;;;;10455660;28;20115;-84
2022/04/29 23:44:53;;;;;;;22.60;10.77;;;5.70;99.90;;;;;;10454580;28;20044;-84
2022/04/29 23:49:53;;;;;;;29.13;12.53;;;5.70;99.90;;;;;;10454540;28;20443;-85
2022/04/29 23:54:54;;;;;;;24.43;11.77;;;5.60;99.90;;;;;;10436426;28;20033;-85
2022/04/29 23:59:55;;;;;;;25.33;12.67;;;5.60;99.90;;;;;;10453382;28;20033;-85
